Clarks Hill, South Carolina
Current Conditions -  °F | °C
As of 7:53 PM on Saturday 25 Oct 2014 (Local Time) from KDNL Reporting Station
Clear Clear  
Wind Chill: 70°   Ceiling: Unl
Heat Index: 70°   Visibility: 10mi
Dew Point: 42°   Wind: 6mph
Humidity: 36%   Direction: 290°WNW
Pressure: 30"   Gusts: NA
Location:  33.67°N, 82.17°W
Report Text: KDNL 252353Z AUTO 29005KT 10SM CLR 21/06 A3000 RMK AO2 SLP155 T02110056 10256 20194 53008 $
Loading
Personal Weather Stations






























Interactive Weather Map
Tropical Storm Tracking
New forecast layout! Learn more

10-Day Weather Forecast

Advertisements
Track Severe Weather on mobile